createdAt,value
2022-09-13T00:02:21.007Z,63.17
2022-09-13T00:04:48.110Z,63.22
2022-09-13T00:07:15.228Z,63.19
2022-09-13T00:09:42.293Z,63.15
2022-09-13T00:12:09.378Z,63.12
2022-09-13T00:14:36.419Z,63.22
2022-09-13T00:17:03.722Z,63.09
2022-09-13T00:19:30.839Z,62.93
2022-09-13T00:21:57.869Z,62.91
2022-09-13T00:24:25.102Z,62.85
2022-09-13T00:26:52.150Z,62.70
2022-09-13T00:29:19.235Z,62.84
2022-09-13T00:31:46.318Z,62.87
2022-09-13T00:34:13.530Z,62.93
2022-09-13T00:36:40.671Z,62.84
2022-09-13T00:39:07.700Z,62.89
2022-09-13T00:41:34.954Z,63.00
2022-09-13T00:44:03.274Z,62.95
2022-09-13T00:46:44.683Z,62.84
2022-09-13T00:49:46.001Z,62.71
2022-09-13T00:52:19.976Z,62.63
2022-09-13T00:54:53.122Z,62.77
2022-09-13T00:57:22.434Z,62.74
2022-09-13T00:59:59.348Z,62.67
2022-09-13T01:02:28.815Z,62.46
2022-09-13T01:04:56.534Z,62.58
2022-09-13T01:07:23.799Z,62.87
2022-09-13T01:09:53.038Z,62.86
2022-09-13T01:12:43.431Z,62.75
2022-09-13T01:15:11.754Z,63.02
2022-09-13T01:17:40.062Z,62.92
2022-09-13T01:20:09.651Z,63.00
2022-09-13T01:22:45.498Z,63.18
2022-09-13T01:25:35.087Z,63.02
2022-09-13T01:28:51.557Z,63.13
2022-09-13T01:31:36.330Z,62.99
2022-09-13T01:34:15.155Z,62.95
2022-09-13T01:37:00.258Z,62.82
2022-09-13T01:39:48.585Z,62.76
2022-09-13T01:42:40.402Z,62.90
2022-09-13T01:45:28.762Z,62.98
2022-09-13T01:48:14.220Z,63.16
2022-09-13T01:50:49.469Z,62.99
2022-09-13T01:53:38.734Z,62.96
2022-09-13T01:56:29.128Z,63.07
2022-09-13T01:59:42.864Z,62.93
2022-09-13T02:02:36.844Z,63.14
2022-09-13T02:05:37.840Z,63.32
2022-09-13T02:08:23.497Z,63.20
2022-09-13T02:11:12.872Z,63.02
2022-09-13T02:13:47.268Z,62.98
2022-09-13T02:16:31.257Z,63.04
2022-09-13T02:19:07.100Z,62.76
2022-09-13T02:21:39.347Z,62.39
2022-09-13T02:24:12.869Z,61.99
2022-09-13T02:26:42.123Z,62.13
2022-09-13T02:29:17.056Z,61.93
2022-09-13T02:32:17.322Z,62.15
2022-09-13T02:34:57.440Z,62.35
2022-09-13T02:37:28.210Z,62.35
2022-09-13T02:40:03.676Z,62.54
2022-09-13T02:43:22.695Z,62.80
2022-09-13T02:46:18.927Z,62.82
2022-09-13T02:49:51.663Z,62.54
2022-09-13T02:52:43.567Z,62.51
2022-09-13T02:55:34.528Z,62.57
2022-09-13T02:58:48.972Z,62.74
2022-09-13T03:01:16.324Z,62.30
2022-09-13T03:03:44.520Z,62.17
2022-09-13T03:06:11.569Z,62.36
2022-09-13T03:08:39.055Z,62.58
2022-09-13T03:11:15.736Z,62.46
2022-09-13T03:14:09.946Z,62.42
2022-09-13T03:16:48.054Z,62.32
2022-09-13T03:19:54.673Z,62.03
2022-09-13T03:23:08.411Z,62.18
2022-09-13T03:25:51.981Z,62.52
2022-09-13T03:28:41.207Z,62.70
2022-09-13T03:31:21.331Z,62.89
2022-09-13T03:34:13.947Z,62.59
2022-09-13T03:36:52.633Z,62.56
2022-09-13T03:40:08.310Z,62.33
2022-09-13T03:42:48.494Z,62.43
2022-09-13T03:45:19.460Z,62.52
2022-09-13T03:47:49.375Z,62.25
2022-09-13T03:50:24.237Z,62.24
2022-09-13T03:53:05.078Z,62.12
2022-09-13T03:55:34.306Z,62.17
2022-09-13T03:58:01.472Z,62.03
2022-09-13T04:00:29.511Z,61.84
2022-09-13T04:02:56.585Z,62.00
2022-09-13T04:05:23.632Z,62.19
2022-09-13T04:07:50.701Z,62.13
2022-09-13T04:10:17.746Z,62.00
2022-09-13T04:12:44.945Z,62.04
2022-09-13T04:15:12.115Z,62.15
2022-09-13T04:17:39.191Z,62.15
2022-09-13T04:20:06.814Z,62.60
2022-09-13T04:22:33.905Z,62.55
2022-09-13T04:25:02.624Z,62.51
2022-09-13T04:27:29.951Z,62.44
2022-09-13T04:29:57.067Z,62.59
2022-09-13T04:32:24.583Z,62.53
2022-09-13T04:34:51.665Z,62.02
2022-09-13T04:37:18.712Z,62.29
2022-09-13T04:39:45.864Z,62.31
2022-09-13T04:42:13.535Z,61.93
2022-09-13T04:44:40.651Z,62.05
2022-09-13T04:47:08.992Z,62.04
2022-09-13T04:49:36.046Z,62.04
2022-09-13T04:52:03.524Z,62.12
2022-09-13T04:54:31.348Z,61.36
2022-09-13T04:56:58.392Z,61.17
2022-09-13T04:59:25.439Z,61.15
2022-09-13T05:01:52.616Z,60.99
2022-09-13T05:04:19.724Z,60.92
2022-09-13T05:06:48.657Z,60.76
2022-09-13T05:09:16.323Z,60.82
2022-09-13T05:11:43.570Z,60.72
2022-09-13T05:14:11.639Z,60.83
2022-09-13T05:16:39.129Z,60.25
2022-09-13T05:19:06.319Z,59.96
2022-09-13T05:21:33.579Z,59.89
2022-09-13T05:24:00.860Z,59.64
2022-09-13T05:26:33.583Z,59.36
2022-09-13T05:29:04.069Z,59.18
2022-09-13T05:31:40.911Z,58.46
2022-09-13T05:34:12.874Z,58.62
2022-09-13T05:36:40.635Z,58.46
2022-09-13T05:39:29.639Z,58.52
2022-09-13T05:42:00.116Z,58.15
2022-09-13T05:44:27.169Z,57.70
2022-09-13T05:46:54.148Z,57.19
2022-09-13T05:49:21.130Z,57.05
2022-09-13T05:51:48.240Z,57.01
2022-09-13T05:54:15.364Z,57.24
2022-09-13T05:56:42.514Z,56.85
2022-09-13T05:59:14.549Z,56.94
2022-09-13T06:01:42.135Z,56.34
2022-09-13T06:04:09.349Z,55.74
2022-09-13T06:06:36.591Z,55.43
2022-09-13T06:09:06.482Z,54.97
2022-09-13T06:11:33.609Z,54.80
2022-09-13T06:14:00.638Z,54.13
2022-09-13T06:16:27.771Z,53.72
2022-09-13T06:18:55.080Z,53.18
2022-09-13T06:21:28.314Z,52.01
2022-09-13T06:23:57.003Z,51.39
2022-09-13T06:26:27.154Z,50.79
2022-09-13T06:28:57.100Z,50.30
2022-09-13T06:31:27.412Z,50.37
2022-09-13T06:34:02.342Z,50.30
2022-09-13T06:36:30.085Z,49.95
2022-09-13T06:38:58.130Z,49.85
2022-09-13T06:41:27.308Z,49.84
2022-09-13T06:43:57.641Z,49.48
2022-09-13T06:46:27.045Z,49.07
2022-09-13T06:48:54.841Z,48.10
2022-09-13T06:51:25.009Z,46.86
2022-09-13T06:53:53.588Z,46.81
2022-09-13T06:56:28.777Z,46.75
2022-09-13T06:58:59.240Z,46.54
2022-09-13T07:01:36.738Z,46.35
2022-09-13T07:04:12.602Z,46.59
2022-09-13T07:06:43.051Z,46.59
2022-09-13T07:09:14.880Z,46.52
2022-09-13T07:11:42.590Z,46.43
2022-09-13T07:14:13.789Z,46.19
2022-09-13T07:16:41.004Z,46.14
2022-09-13T07:19:13.927Z,46.38
2022-09-13T07:21:43.926Z,45.27
2022-09-13T07:24:11.771Z,45.36
2022-09-13T07:26:39.459Z,44.96
2022-09-13T07:29:10.613Z,44.29
2022-09-13T07:31:41.155Z,42.84
2022-09-13T07:34:14.615Z,42.63
2022-09-13T07:36:42.533Z,42.69
2022-09-13T07:39:13.730Z,42.85
2022-09-13T07:41:43.473Z,43.70
2022-09-13T07:44:11.997Z,44.04
2022-09-13T07:46:45.921Z,44.98
2022-09-13T07:49:19.067Z,45.89
2022-09-13T07:51:46.553Z,46.51
2022-09-13T07:54:16.508Z,47.33
2022-09-13T07:56:44.617Z,47.48
2022-09-13T07:59:15.276Z,48.62
2022-09-13T08:01:48.432Z,49.46
2022-09-13T08:04:21.149Z,49.18
2022-09-13T08:06:58.906Z,49.44
2022-09-13T08:09:26.034Z,49.09
2022-09-13T08:11:53.795Z,49.52
2022-09-13T08:14:23.159Z,49.94
2022-09-13T08:16:50.893Z,50.51
2022-09-13T08:19:19.647Z,50.61
2022-09-13T08:21:47.036Z,50.41
2022-09-13T08:24:21.440Z,49.72
2022-09-13T08:26:49.632Z,50.01
2022-09-13T08:29:17.294Z,50.02
2022-09-13T08:31:45.029Z,48.21
2022-09-13T08:34:15.162Z,47.75
2022-09-13T08:36:43.681Z,47.55
2022-09-13T08:39:13.984Z,48.12
2022-09-13T08:41:45.385Z,48.52
2022-09-13T08:44:35.477Z,49.02
2022-09-13T08:47:44.549Z,48.98
2022-09-13T08:50:39.281Z,48.63
2022-09-13T08:53:06.342Z,48.76
2022-09-13T08:56:07.537Z,48.91
2022-09-13T08:59:14.441Z,49.34
2022-09-13T09:02:21.193Z,48.96
2022-09-13T09:05:04.440Z,49.52
2022-09-13T09:07:44.481Z,49.44
2022-09-13T09:10:18.577Z,49.32
2022-09-13T09:12:49.766Z,48.87
2022-09-13T09:15:27.687Z,48.73
2022-09-13T09:18:19.776Z,48.35
2022-09-13T09:20:56.538Z,47.90
2022-09-13T09:23:53.055Z,47.70
2022-09-13T09:26:29.156Z,48.03
2022-09-13T09:29:05.943Z,47.65
2022-09-13T09:31:45.331Z,46.96
2022-09-13T09:34:45.512Z,45.99
2022-09-13T09:37:26.126Z,44.60
2022-09-13T09:39:56.220Z,44.45
2022-09-13T09:42:28.624Z,41.77
2022-09-13T09:45:33.859Z,42.33
2022-09-13T09:48:15.280Z,41.64
2022-09-13T09:50:50.872Z,40.60
2022-09-13T09:53:54.035Z,40.13
2022-09-13T09:56:30.513Z,39.82
2022-09-13T09:58:57.726Z,39.99
2022-09-13T10:01:30.682Z,40.06
2022-09-13T10:04:13.138Z,40.57
2022-09-13T10:06:42.125Z,40.39
2022-09-13T10:09:18.235Z,40.95
2022-09-13T10:11:58.144Z,40.66
2022-09-13T10:14:34.682Z,40.50
2022-09-13T10:17:27.893Z,38.54
2022-09-13T10:20:15.905Z,38.64
2022-09-13T10:22:42.985Z,38.20
2022-09-13T10:25:31.874Z,37.21
2022-09-13T10:28:00.562Z,36.81
2022-09-13T10:30:57.715Z,37.17
2022-09-13T10:33:36.607Z,37.13
2022-09-13T10:36:29.516Z,37.47
2022-09-13T10:39:13.437Z,38.22
2022-09-13T10:41:42.886Z,38.58
2022-09-13T10:44:37.799Z,38.40
2022-09-13T10:47:11.323Z,37.23
2022-09-13T10:49:54.150Z,36.56
2022-09-13T10:52:29.435Z,36.15
2022-09-13T10:55:21.075Z,35.92
2022-09-13T10:58:08.339Z,36.89
2022-09-13T11:00:44.391Z,38.08
2022-09-13T11:03:40.785Z,37.64
2022-09-13T11:06:32.301Z,37.04
2022-09-13T11:10:10.130Z,37.00
2022-09-13T11:13:07.533Z,37.33
2022-09-13T11:15:56.116Z,37.87
2022-09-13T11:18:54.904Z,38.20
2022-09-13T11:21:58.333Z,37.70
2022-09-13T11:25:10.434Z,37.08
2022-09-13T11:28:15.147Z,35.36
2022-09-13T11:31:43.765Z,34.92
2022-09-13T11:35:10.984Z,33.82
2022-09-13T11:38:15.570Z,32.61
2022-09-13T11:41:11.719Z,32.21
2022-09-13T11:43:56.306Z,31.72
2022-09-13T11:46:42.137Z,31.20
2022-09-13T11:49:42.740Z,29.12
2022-09-13T11:52:30.034Z,29.27
2022-09-13T11:55:21.654Z,29.21
2022-09-13T11:58:00.812Z,30.05
2022-09-13T12:00:42.301Z,29.54
2022-09-13T12:03:28.323Z,28.39
2022-09-13T12:06:01.711Z,27.33
2022-09-13T12:08:45.672Z,27.61
2022-09-13T12:11:25.418Z,29.08
2022-09-13T12:13:58.297Z,29.18
2022-09-13T12:16:50.630Z,30.08
2022-09-13T12:19:28.563Z,29.48
2022-09-13T12:22:00.132Z,29.11
2022-09-13T12:24:48.718Z,28.73
2022-09-13T12:27:40.350Z,27.57
2022-09-13T12:30:16.482Z,26.40
2022-09-13T12:32:47.509Z,28.32
2022-09-13T12:35:54.433Z,29.15
2022-09-13T12:38:55.928Z,29.24
2022-09-13T12:41:50.914Z,29.42
2022-09-13T12:44:45.060Z,29.10
2022-09-13T12:47:39.687Z,29.82
2022-09-13T12:50:41.995Z,31.33
2022-09-13T12:53:20.250Z,32.37
2022-09-13T12:56:14.816Z,32.55
2022-09-13T12:59:10.289Z,32.95
2022-09-13T13:01:38.180Z,32.99
2022-09-13T13:04:28.636Z,32.93
2022-09-13T13:07:22.935Z,32.89
2022-09-13T13:09:54.733Z,32.37
2022-09-13T13:12:36.828Z,32.43
2022-09-13T13:15:16.133Z,32.28
2022-09-13T13:17:51.182Z,31.15
2022-09-13T13:21:08.184Z,29.85
2022-09-13T13:23:37.396Z,29.35
2022-09-13T13:26:58.451Z,28.38
2022-09-13T13:29:31.523Z,28.16
2022-09-13T13:32:07.945Z,26.63
2022-09-13T13:34:45.092Z,25.32
2022-09-13T13:37:12.091Z,26.11
2022-09-13T13:39:41.472Z,25.86
2022-09-13T13:42:27.235Z,26.16
2022-09-13T13:44:54.317Z,26.89
2022-09-13T13:47:21.270Z,27.18
2022-09-13T13:50:15.399Z,28.27
2022-09-13T13:52:48.646Z,29.23
2022-09-13T13:55:46.941Z,30.48
2022-09-13T13:58:47.182Z,31.17
2022-09-13T14:01:30.505Z,31.65
2022-09-13T14:04:18.772Z,32.54
2022-09-13T14:07:19.453Z,32.81
2022-09-13T14:10:14.505Z,32.89
2022-09-13T14:13:13.002Z,32.92
2022-09-13T14:16:11.424Z,33.18
2022-09-13T14:19:29.431Z,32.96
2022-09-13T14:22:20.992Z,32.63
2022-09-13T14:24:58.986Z,32.81
2022-09-13T14:27:35.985Z,33.60
2022-09-13T14:30:16.189Z,34.45
2022-09-13T14:32:47.441Z,34.63
2022-09-13T14:35:38.295Z,34.39
2022-09-13T14:38:27.032Z,34.58
2022-09-13T14:40:59.319Z,34.78
2022-09-13T14:43:29.594Z,35.34
2022-09-13T14:46:38.983Z,35.38
2022-09-13T14:49:16.232Z,36.04
2022-09-13T14:51:52.695Z,36.12
2022-09-13T14:54:44.150Z,36.30
2022-09-13T14:57:29.790Z,36.73
2022-09-13T15:00:20.206Z,36.91
2022-09-13T15:02:59.911Z,37.28
2022-09-13T15:05:32.830Z,37.55
2022-09-13T15:08:00.810Z,37.76
2022-09-13T15:10:46.686Z,37.67
2022-09-13T15:13:15.978Z,37.59
2022-09-13T15:15:45.393Z,37.07
2022-09-13T15:18:21.218Z,36.99
2022-09-13T15:21:01.900Z,37.36
2022-09-13T15:23:36.908Z,37.24
2022-09-13T15:26:10.025Z,37.35
2022-09-13T15:29:02.186Z,37.65
2022-09-13T15:31:33.349Z,37.29
2022-09-13T15:34:23.869Z,36.91
2022-09-13T15:37:14.888Z,37.02
2022-09-13T15:40:19.642Z,37.23
2022-09-13T15:42:49.361Z,38.13
2022-09-13T15:45:18.788Z,38.02
2022-09-13T15:47:49.709Z,38.44
2022-09-13T15:50:27.321Z,38.94
2022-09-13T15:52:56.100Z,39.40
2022-09-13T15:55:24.380Z,39.06
2022-09-13T15:57:51.883Z,38.99
2022-09-13T16:00:27.778Z,39.01
2022-09-13T16:02:54.988Z,39.01
2022-09-13T16:05:22.585Z,39.18
2022-09-13T16:07:49.872Z,38.70
2022-09-13T16:10:22.460Z,38.66
2022-09-13T16:12:51.648Z,38.65
2022-09-13T16:15:19.000Z,38.72
2022-09-13T16:17:46.326Z,39.21
2022-09-13T16:20:16.091Z,39.07
2022-09-13T16:22:43.249Z,39.41
2022-09-13T16:25:13.680Z,39.50
2022-09-13T16:27:43.675Z,39.25
2022-09-13T16:30:14.416Z,39.57
2022-09-13T16:32:41.795Z,39.49
2022-09-13T16:35:10.501Z,39.38
2022-09-13T16:37:40.013Z,39.59
2022-09-13T16:40:10.105Z,39.79
2022-09-13T16:42:37.382Z,39.95
2022-09-13T16:45:05.156Z,39.99
2022-09-13T16:47:32.297Z,40.24
2022-09-13T16:49:59.754Z,40.47
2022-09-13T16:52:28.903Z,40.42
2022-09-13T16:54:57.071Z,40.91
2022-09-13T16:57:24.687Z,41.04
2022-09-13T16:59:54.340Z,41.44
2022-09-13T17:02:21.607Z,41.56
2022-09-13T17:04:48.803Z,41.94
2022-09-13T17:07:15.925Z,41.78
2022-09-13T17:09:43.646Z,42.03
2022-09-13T17:12:13.465Z,41.72
2022-09-13T17:14:47.481Z,41.79
2022-09-13T17:17:18.680Z,41.72
2022-09-13T17:19:45.911Z,41.60
2022-09-13T17:22:13.061Z,41.71
2022-09-13T17:24:40.899Z,41.96
2022-09-13T17:27:08.084Z,42.03
2022-09-13T17:29:35.885Z,41.98
2022-09-13T17:32:05.894Z,42.13
2022-09-13T17:34:34.700Z,42.17
2022-09-13T17:37:03.679Z,42.22
2022-09-13T17:39:31.415Z,42.43
2022-09-13T17:41:58.908Z,42.72
2022-09-13T17:44:26.190Z,42.65
2022-09-13T17:46:53.382Z,42.77
2022-09-13T17:49:20.580Z,42.83
2022-09-13T17:51:47.646Z,43.14
2022-09-13T17:54:14.773Z,43.05
2022-09-13T17:56:44.656Z,42.98
2022-09-13T17:59:18.354Z,43.34
2022-09-13T18:01:51.724Z,43.42
2022-09-13T18:04:22.570Z,43.63
2022-09-13T18:06:52.699Z,43.59
2022-09-13T18:09:20.804Z,44.13
2022-09-13T18:11:47.941Z,43.99
2022-09-13T18:14:17.538Z,44.50
2022-09-13T18:16:45.057Z,44.51
2022-09-13T18:19:12.761Z,45.06
2022-09-13T18:21:40.691Z,45.58
2022-09-13T18:24:07.897Z,46.04
2022-09-13T18:26:35.986Z,46.01
2022-09-13T18:29:07.617Z,46.12
2022-09-13T18:31:36.309Z,46.18
2022-09-13T18:34:11.934Z,46.41
2022-09-13T18:36:39.908Z,46.63
2022-09-13T18:39:11.125Z,46.74
2022-09-13T18:41:40.774Z,46.92
2022-09-13T18:44:10.465Z,47.08
2022-09-13T18:46:38.267Z,47.39
2022-09-13T18:49:06.822Z,47.55
2022-09-13T18:51:44.937Z,47.67
2022-09-13T18:54:17.964Z,47.82
2022-09-13T18:56:47.326Z,48.09
2022-09-13T18:59:14.920Z,47.88
2022-09-13T19:01:44.243Z,47.93
2022-09-13T19:04:20.157Z,47.86
2022-09-13T19:06:50.642Z,47.52
2022-09-13T19:09:20.641Z,47.61
2022-09-13T19:11:50.596Z,47.60
2022-09-13T19:14:27.079Z,47.39
2022-09-13T19:16:57.184Z,47.44
2022-09-13T19:19:24.895Z,47.49
2022-09-13T19:21:52.100Z,47.54
2022-09-13T19:26:51.049Z,46.99
2022-09-13T19:29:23.226Z,47.22
2022-09-13T19:31:52.526Z,47.62
2022-09-13T19:34:22.501Z,48.16
2022-09-13T19:36:53.778Z,47.79
2022-09-13T19:39:20.887Z,47.72
2022-09-13T19:41:47.992Z,47.38
2022-09-13T19:44:15.420Z,46.88
2022-09-13T19:46:43.402Z,46.86
2022-09-13T19:49:16.703Z,47.32
2022-09-13T19:51:50.143Z,47.12
2022-09-13T19:54:19.486Z,47.28
2022-09-13T19:56:46.636Z,47.25
2022-09-13T19:59:17.113Z,47.59
2022-09-13T20:01:46.125Z,47.88
2022-09-13T20:04:17.682Z,48.10
2022-09-13T20:06:51.500Z,48.49
2022-09-13T20:09:20.740Z,48.82
2022-09-13T20:11:48.980Z,49.14
2022-09-13T20:14:19.312Z,49.39
2022-09-13T20:16:47.472Z,49.58
2022-09-13T20:22:10.069Z,50.28
2022-09-13T20:24:37.521Z,50.70
2022-09-13T20:27:04.987Z,50.72
2022-09-13T20:29:32.109Z,51.26
2022-09-13T20:31:59.857Z,51.05
2022-09-13T20:34:27.320Z,51.28
2022-09-13T20:36:54.522Z,51.50
2022-09-13T20:39:21.785Z,51.55
2022-09-13T20:41:50.082Z,51.64
2022-09-13T20:44:17.563Z,51.39
2022-09-13T20:46:44.779Z,51.94
2022-09-13T20:49:12.022Z,52.05
2022-09-13T20:51:39.210Z,52.31
2022-09-13T20:54:06.754Z,52.11
2022-09-13T20:56:34.862Z,52.36
2022-09-13T20:59:02.714Z,52.17
2022-09-13T21:01:31.656Z,52.43
2022-09-13T21:04:00.241Z,52.69
2022-09-13T21:06:30.733Z,52.83
2022-09-13T21:09:00.093Z,52.82
2022-09-13T21:11:35.739Z,52.94
2022-09-13T21:14:06.475Z,53.21
2022-09-13T21:16:39.605Z,53.28
2022-09-13T21:19:08.078Z,53.38
2022-09-13T21:21:38.868Z,53.72
2022-09-13T21:24:09.841Z,53.60
2022-09-13T21:26:42.077Z,53.64
2022-09-13T21:29:11.525Z,53.79
2022-09-13T21:31:39.891Z,53.31
2022-09-13T21:34:18.739Z,53.37
2022-09-13T21:36:46.914Z,53.53
2022-09-13T21:39:15.190Z,53.35
2022-09-13T21:41:43.514Z,53.50
2022-09-13T21:44:10.915Z,53.53
2022-09-13T21:46:40.036Z,53.31
2022-09-13T21:49:11.409Z,53.72
2022-09-13T21:51:46.794Z,53.83
2022-09-13T21:54:17.776Z,54.18
2022-09-13T21:56:51.469Z,54.26
2022-09-13T21:59:21.610Z,54.57
2022-09-13T22:01:51.748Z,54.40
2022-09-13T22:04:25.426Z,54.26
2022-09-13T22:06:53.765Z,54.34
2022-09-13T22:09:27.175Z,54.39
2022-09-13T22:11:55.326Z,54.46
2022-09-13T22:14:22.605Z,54.66
2022-09-13T22:16:52.630Z,54.58
2022-09-13T22:19:26.073Z,54.69
2022-09-13T22:22:00.021Z,54.62
2022-09-13T22:24:32.095Z,54.62
2022-09-13T22:26:59.831Z,54.72
2022-09-13T22:29:27.449Z,54.54
2022-09-13T22:31:55.158Z,54.68
2022-09-13T22:34:24.999Z,54.50
2022-09-13T22:36:55.311Z,54.68
2022-09-13T22:39:22.752Z,54.68
2022-09-13T22:41:49.844Z,54.88
2022-09-13T22:44:16.939Z,54.77
2022-09-13T22:46:46.083Z,55.20
2022-09-13T22:49:17.230Z,55.34
2022-09-13T22:51:45.598Z,55.80
2022-09-13T22:54:14.755Z,55.97
2022-09-13T22:56:42.576Z,56.00
2022-09-13T22:59:19.906Z,55.85
2022-09-13T23:01:48.134Z,55.36
2022-09-13T23:04:15.700Z,55.27
2022-09-13T23:06:46.435Z,55.21
2022-09-13T23:09:18.031Z,55.29
2022-09-13T23:11:46.361Z,55.38
2022-09-13T23:14:16.807Z,55.42
2022-09-13T23:16:47.084Z,55.55
2022-09-13T23:19:15.078Z,55.73
2022-09-13T23:21:43.685Z,55.91
2022-09-13T23:24:15.559Z,55.78
2022-09-13T23:26:44.311Z,55.62
2022-09-13T23:29:15.224Z,55.55
2022-09-13T23:31:43.430Z,55.71
2022-09-13T23:34:12.636Z,56.02
2022-09-13T23:36:42.126Z,56.21
2022-09-13T23:39:16.417Z,56.49
2022-09-13T23:41:45.508Z,56.74
2022-09-13T23:44:13.111Z,56.81
2022-09-13T23:46:40.487Z,56.48
2022-09-13T23:49:07.571Z,56.29
2022-09-13T23:51:34.725Z,56.36
2022-09-13T23:54:02.048Z,56.58
2022-09-13T23:56:31.588Z,56.74
2022-09-13T23:59:01.148Z,56.92
